createdAt,value
2018-03-27T00:00:14.154Z,1009.91
2018-03-27T00:01:14.110Z,1009.90
2018-03-27T00:02:14.069Z,1009.92
2018-03-27T00:03:14.015Z,1009.89
2018-03-27T00:04:14.018Z,1009.91
2018-03-27T00:05:14.226Z,1009.89
2018-03-27T00:06:13.874Z,1009.90
2018-03-27T00:07:13.869Z,1009.89
2018-03-27T00:08:13.783Z,1009.88
2018-03-27T00:09:13.729Z,1009.91
2018-03-27T00:10:13.724Z,1009.90
2018-03-27T00:11:13.927Z,1009.88
2018-03-27T00:12:13.578Z,1009.90
2018-03-27T00:13:13.543Z,1009.89
2018-03-27T00:14:13.486Z,1009.87
2018-03-27T00:15:13.436Z,1009.82
2018-03-27T00:16:13.435Z,1009.85
2018-03-27T00:17:13.640Z,1009.84
2018-03-27T00:18:13.291Z,1009.85
2018-03-27T00:19:13.242Z,1009.81
2018-03-27T00:20:13.196Z,1009.83
2018-03-27T00:21:13.147Z,1009.83
2018-03-27T00:22:13.097Z,1009.86
2018-03-27T00:23:13.051Z,1009.80
2018-03-27T00:24:13.302Z,1009.80
2018-03-27T00:25:12.952Z,1009.75
2018-03-27T00:26:12.915Z,1009.80
2018-03-27T00:27:12.861Z,1009.75
2018-03-27T00:28:12.811Z,1009.79
2018-03-27T00:29:12.766Z,1009.81
2018-03-27T00:30:12.716Z,1009.77
2018-03-27T00:31:12.964Z,1009.79
2018-03-27T00:32:12.769Z,1009.74
2018-03-27T00:33:12.569Z,1009.74
2018-03-27T00:34:12.520Z,1009.72
2018-03-27T00:35:12.474Z,1009.70
2018-03-27T00:36:12.427Z,1009.70
2018-03-27T00:37:12.376Z,1009.69
2018-03-27T00:38:12.630Z,1009.66
2018-03-27T00:39:12.287Z,1009.72
2018-03-27T00:40:12.233Z,1009.68
2018-03-27T00:41:12.191Z,1009.70
2018-03-27T00:42:12.137Z,1009.71
2018-03-27T00:43:12.245Z,1009.71
2018-03-27T00:44:12.043Z,1009.72
2018-03-27T00:45:12.342Z,1009.73
2018-03-27T00:46:11.947Z,1009.75
2018-03-27T00:47:11.902Z,1009.74
2018-03-27T00:48:11.851Z,1009.66
2018-03-27T00:49:12.002Z,1009.70
2018-03-27T00:50:11.755Z,1009.71
2018-03-27T00:51:11.708Z,1009.69
2018-03-27T00:52:11.966Z,1009.67
2018-03-27T00:53:11.610Z,1009.70
2018-03-27T00:54:11.563Z,1009.68
2018-03-27T00:55:11.569Z,1009.67
2018-03-27T00:56:11.467Z,1009.70
2018-03-27T00:57:11.419Z,1009.64
2018-03-27T00:58:11.376Z,1009.63
2018-03-27T00:59:11.628Z,1009.70
2018-03-27T01:00:11.276Z,1009.67
2018-03-27T01:01:11.228Z,1009.69
2018-03-27T01:02:11.180Z,1009.64
2018-03-27T01:03:11.136Z,1009.68
2018-03-27T01:04:11.088Z,1009.68
2018-03-27T01:05:11.336Z,1009.66
2018-03-27T01:06:11.040Z,1009.69
2018-03-27T01:07:10.941Z,1009.73
2018-03-27T01:08:10.894Z,1009.72
2018-03-27T01:09:10.847Z,1009.74
2018-03-27T01:10:10.804Z,1009.73
2018-03-27T01:11:11.056Z,1009.69
2018-03-27T01:12:10.855Z,1009.68
2018-03-27T01:13:10.656Z,1009.71
2018-03-27T01:14:10.613Z,1009.69
2018-03-27T01:15:10.563Z,1009.72
2018-03-27T01:16:10.511Z,1009.68
2018-03-27T01:17:10.763Z,1009.68
2018-03-27T01:18:10.468Z,1009.74
2018-03-27T01:19:10.367Z,1009.72
2018-03-27T01:20:10.325Z,1009.69
2018-03-27T01:21:10.271Z,1009.71
2018-03-27T01:22:10.226Z,1009.68
2018-03-27T01:23:10.480Z,1009.67
2018-03-27T01:24:10.131Z,1009.67
2018-03-27T01:25:10.079Z,1009.65
2018-03-27T01:26:10.032Z,1009.59
2018-03-27T01:27:09.991Z,1009.64
2018-03-27T01:28:09.938Z,1009.64
2018-03-27T01:29:10.192Z,1009.63
2018-03-27T01:30:09.844Z,1009.67
2018-03-27T01:31:09.798Z,1009.62
2018-03-27T01:32:09.750Z,1009.61
2018-03-27T01:33:09.696Z,1009.58
2018-03-27T01:34:09.655Z,1009.60
2018-03-27T01:35:09.603Z,1009.53
2018-03-27T01:36:09.857Z,1009.50
2018-03-27T01:37:09.506Z,1009.51
2018-03-27T01:38:09.461Z,1009.47
2018-03-27T01:39:09.415Z,1009.44
2018-03-27T01:40:09.367Z,1009.46
2018-03-27T01:41:09.315Z,1009.43
2018-03-27T01:42:09.268Z,1009.45
2018-03-27T01:43:09.520Z,1009.43
2018-03-27T01:44:09.235Z,1009.39
2018-03-27T01:45:09.124Z,1009.38
2018-03-27T01:46:09.077Z,1009.38
2018-03-27T01:47:09.031Z,1009.37
2018-03-27T01:48:08.990Z,1009.35
2018-03-27T01:49:08.935Z,1009.38
2018-03-27T01:50:09.442Z,1009.37
2018-03-27T01:51:08.840Z,1009.33
2018-03-27T01:52:08.791Z,1009.34
2018-03-27T01:53:08.742Z,1009.34
2018-03-27T01:54:08.697Z,1009.26
2018-03-27T01:55:08.659Z,1009.30
2018-03-27T01:56:08.602Z,1009.27
2018-03-27T01:57:08.851Z,1009.27
2018-03-27T01:58:08.503Z,1009.30
2018-03-27T01:59:08.456Z,1009.28
2018-03-27T02:00:08.408Z,1009.26
2018-03-27T02:01:08.414Z,1009.28
2018-03-27T02:02:08.313Z,1009.30
2018-03-27T02:03:08.265Z,1009.27
2018-03-27T02:04:08.522Z,1009.25
2018-03-27T02:05:08.197Z,1009.26
2018-03-27T02:06:08.121Z,1009.23
2018-03-27T02:07:08.074Z,1009.23
2018-03-27T02:08:08.026Z,1009.18
2018-03-27T02:09:07.979Z,1009.21
2018-03-27T02:10:08.232Z,1009.15
2018-03-27T02:11:07.883Z,1009.18
2018-03-27T02:12:07.836Z,1009.16
2018-03-27T02:13:07.788Z,1009.20
2018-03-27T02:14:07.744Z,1009.15
2018-03-27T02:15:07.693Z,1009.19
2018-03-27T02:16:07.945Z,1009.13
2018-03-27T02:17:07.597Z,1009.14
2018-03-27T02:18:07.550Z,1009.14
2018-03-27T02:19:07.503Z,1009.14
2018-03-27T02:20:07.455Z,1009.11
2018-03-27T02:21:07.405Z,1009.09
2018-03-27T02:22:07.658Z,1009.10
2018-03-27T02:23:07.316Z,1009.11
2018-03-27T02:24:07.263Z,1009.06
2018-03-27T02:25:07.217Z,1009.07
2018-03-27T02:26:07.169Z,1008.97
2018-03-27T02:27:07.123Z,1009.04
2018-03-27T02:28:07.372Z,1009.02
2018-03-27T02:29:07.039Z,1009.02
2018-03-27T02:30:06.976Z,1009.03
2018-03-27T02:31:06.928Z,1009.01
2018-03-27T02:32:06.882Z,1009.03
2018-03-27T02:33:06.847Z,1009.06
2018-03-27T02:34:07.097Z,1009.03
2018-03-27T02:35:06.744Z,1009.07
2018-03-27T02:36:06.691Z,1009.08
2018-03-27T02:37:06.691Z,1009.08
2018-03-27T02:38:06.595Z,1009.06
2018-03-27T02:39:06.547Z,1009.06
2018-03-27T02:40:06.509Z,1009.04
2018-03-27T02:41:06.752Z,1009.06
2018-03-27T02:42:06.405Z,1009.04
2018-03-27T02:43:06.406Z,1009.06
2018-03-27T02:44:06.306Z,1009.07
2018-03-27T02:45:06.258Z,1009.02
2018-03-27T02:46:06.212Z,1009.01
2018-03-27T02:47:06.162Z,1009.09
2018-03-27T02:48:06.416Z,1009.06
2018-03-27T02:49:06.116Z,1009.06
2018-03-27T02:50:06.021Z,1009.06
2018-03-27T02:51:06.020Z,1009.05
2018-03-27T02:52:05.942Z,1009.05
2018-03-27T02:53:05.874Z,1009.07
2018-03-27T02:54:05.833Z,1009.04
2018-03-27T02:55:06.080Z,1009.05
2018-03-27T02:56:05.743Z,1009.02
2018-03-27T02:57:05.684Z,1009.05
2018-03-27T02:58:05.639Z,1009.00
2018-03-27T02:59:05.597Z,1008.96
2018-03-27T03:00:05.601Z,1008.96
2018-03-27T03:01:05.549Z,1008.93
2018-03-27T03:02:05.744Z,1008.94
2018-03-27T03:03:05.399Z,1008.95
2018-03-27T03:04:05.348Z,1008.96
2018-03-27T03:05:05.300Z,1008.91
2018-03-27T03:06:05.453Z,1008.94
2018-03-27T03:07:05.204Z,1008.90
2018-03-27T03:08:05.157Z,1008.91
2018-03-27T03:09:05.411Z,1008.89
2018-03-27T03:10:05.064Z,1008.89
2018-03-27T03:11:05.013Z,1008.95
2018-03-27T03:12:05.017Z,1008.95
2018-03-27T03:13:04.918Z,1008.91
2018-03-27T03:14:04.873Z,1008.97
2018-03-27T03:15:04.841Z,1009.04
2018-03-27T03:16:05.079Z,1009.04
2018-03-27T03:17:04.725Z,1009.01
2018-03-27T03:18:04.680Z,1009.06
2018-03-27T03:19:04.694Z,1009.05
2018-03-27T03:20:04.581Z,1009.02
2018-03-27T03:21:04.539Z,1009.01
2018-03-27T03:22:04.795Z,1009.00
2018-03-27T03:23:04.438Z,1009.04
2018-03-27T03:24:04.392Z,1009.03
2018-03-27T03:25:04.342Z,1009.09
2018-03-27T03:26:04.294Z,1009.01
2018-03-27T03:27:04.253Z,1009.04
2018-03-27T03:28:04.548Z,1009.01
2018-03-27T03:29:04.154Z,1009.01
2018-03-27T03:30:04.102Z,1009.01
2018-03-27T03:31:04.054Z,1008.99
2018-03-27T03:32:04.008Z,1008.97
2018-03-27T03:33:03.957Z,1008.99
2018-03-27T03:34:04.407Z,1009.00
2018-03-27T03:35:03.863Z,1009.01
2018-03-27T03:36:03.813Z,1008.98
2018-03-27T03:37:03.764Z,1009.04
2018-03-27T03:38:03.716Z,1009.03
2018-03-27T03:39:03.671Z,1009.06
2018-03-27T03:40:03.922Z,1009.06
2018-03-27T03:41:03.573Z,1009.01
2018-03-27T03:42:03.537Z,1009.02
2018-03-27T03:43:03.477Z,1009.01
2018-03-27T03:44:03.432Z,1009.05
2018-03-27T03:45:03.582Z,1009.05
2018-03-27T03:46:03.690Z,1009.02
2018-03-27T03:47:03.287Z,1009.00
2018-03-27T03:48:03.235Z,1009.01
2018-03-27T03:49:03.186Z,1008.99
2018-03-27T03:50:03.137Z,1009.01
2018-03-27T03:51:03.137Z,1009.00
2018-03-27T03:52:03.041Z,1009.00
2018-03-27T03:53:03.330Z,1009.01
2018-03-27T03:54:02.950Z,1008.97
2018-03-27T03:55:02.894Z,1008.96
2018-03-27T03:56:02.852Z,1008.96
2018-03-27T03:57:02.849Z,1008.97
2018-03-27T03:58:02.748Z,1008.95
2018-03-27T03:59:02.699Z,1009.00
2018-03-27T04:00:02.955Z,1008.88
2018-03-27T04:01:02.601Z,1008.91
2018-03-27T04:02:02.555Z,1008.91
2018-03-27T04:03:02.547Z,1008.88
2018-03-27T04:04:02.455Z,1008.83
2018-03-27T04:05:02.405Z,1008.85
2018-03-27T04:06:02.357Z,1008.81
2018-03-27T04:07:02.607Z,1008.77
2018-03-27T04:08:02.411Z,1008.78
2018-03-27T04:09:02.212Z,1008.78
2018-03-27T04:10:02.160Z,1008.83
2018-03-27T04:11:02.122Z,1008.78
2018-03-27T04:12:02.067Z,1008.81
2018-03-27T04:13:02.012Z,1008.89
2018-03-27T04:14:02.319Z,1008.86
2018-03-27T04:15:01.916Z,1008.84
2018-03-27T04:16:01.867Z,1008.82
2018-03-27T04:17:01.868Z,1008.76
2018-03-27T04:18:01.821Z,1008.78
2018-03-27T04:19:01.720Z,1008.80
2018-03-27T04:20:01.722Z,1008.76
2018-03-27T04:21:01.923Z,1008.79
2018-03-27T04:22:01.572Z,1008.78
2018-03-27T04:23:01.522Z,1008.78
2018-03-27T04:24:01.479Z,1008.76
2018-03-27T04:25:01.432Z,1008.79
2018-03-27T04:26:01.382Z,1008.79
2018-03-27T04:27:01.327Z,1008.81
2018-03-27T04:28:01.585Z,1008.80
2018-03-27T04:29:01.228Z,1008.76
2018-03-27T04:30:01.179Z,1008.80
2018-03-27T04:31:01.128Z,1008.74
2018-03-27T04:32:01.081Z,1008.76
2018-03-27T04:33:01.031Z,1008.77
2018-03-27T04:34:01.283Z,1008.78
2018-03-27T04:35:00.932Z,1008.78
2018-03-27T04:36:00.883Z,1008.75
2018-03-27T04:37:00.837Z,1008.67
2018-03-27T04:38:00.822Z,1008.67
2018-03-27T04:39:00.735Z,1008.66
2018-03-27T04:40:00.985Z,1008.69
2018-03-27T04:41:00.643Z,1008.69
2018-03-27T04:42:00.605Z,1008.73
2018-03-27T04:43:00.544Z,1008.70
2018-03-27T04:44:00.488Z,1008.72
2018-03-27T04:45:00.439Z,1008.71
2018-03-27T04:46:00.691Z,1008.66
2018-03-27T04:47:00.417Z,1008.64
2018-03-27T04:48:00.292Z,1008.70
2018-03-27T04:49:00.243Z,1008.69
2018-03-27T04:50:00.196Z,1008.65
2018-03-27T04:51:00.148Z,1008.65
2018-03-27T04:52:00.398Z,1008.65
2018-03-27T04:53:00.047Z,1008.73
2018-03-27T04:54:00.001Z,1008.71
2018-03-27T04:54:59.953Z,1008.68
2018-03-27T04:55:59.903Z,1008.72
2018-03-27T04:56:59.851Z,1008.74
2018-03-27T04:57:59.806Z,1008.73
2018-03-27T04:59:00.058Z,1008.71
2018-03-27T04:59:59.705Z,1008.71
2018-03-27T05:00:59.660Z,1008.70
2018-03-27T05:01:59.605Z,1008.68
2018-03-27T05:02:59.570Z,1008.73
2018-03-27T05:03:59.508Z,1008.74
2018-03-27T05:04:59.470Z,1008.75
2018-03-27T05:05:59.717Z,1008.72
2018-03-27T05:06:59.363Z,1008.68
2018-03-27T05:07:59.315Z,1008.72
2018-03-27T05:08:59.287Z,1008.67
2018-03-27T05:09:59.218Z,1008.66
2018-03-27T05:10:59.368Z,1008.69
2018-03-27T05:11:59.127Z,1008.72
2018-03-27T05:12:59.371Z,1008.68
2018-03-27T05:13:59.022Z,1008.72
2018-03-27T05:14:58.973Z,1008.73
2018-03-27T05:15:58.926Z,1008.72
2018-03-27T05:16:58.887Z,1008.73
2018-03-27T05:17:58.827Z,1008.73
2018-03-27T05:18:58.785Z,1008.70
2018-03-27T05:19:59.037Z,1008.71
2018-03-27T05:20:58.692Z,1008.66
2018-03-27T05:21:58.633Z,1008.66
2018-03-27T05:22:58.586Z,1008.67
2018-03-27T05:23:58.537Z,1008.61
2018-03-27T05:24:58.488Z,1008.62
2018-03-27T05:25:58.440Z,1008.60
2018-03-27T05:26:58.693Z,1008.56
2018-03-27T05:27:58.346Z,1008.53
2018-03-27T05:28:58.298Z,1008.53
2018-03-27T05:29:58.250Z,1008.49
2018-03-27T05:30:58.204Z,1008.44
2018-03-27T05:31:58.152Z,1008.43
2018-03-27T05:32:58.102Z,1008.47
2018-03-27T05:33:58.353Z,1008.45
2018-03-27T05:34:58.009Z,1008.45
2018-03-27T05:35:57.965Z,1008.41
2018-03-27T05:36:57.907Z,1008.43
2018-03-27T05:37:57.859Z,1008.37
2018-03-27T05:38:57.811Z,1008.39
2018-03-27T05:39:58.064Z,1008.42
2018-03-27T05:40:57.716Z,1008.43
2018-03-27T05:41:57.721Z,1008.38
2018-03-27T05:42:57.619Z,1008.40
2018-03-27T05:43:57.569Z,1008.40
2018-03-27T05:44:57.522Z,1008.42
2018-03-27T05:45:57.775Z,1008.39
2018-03-27T05:46:57.426Z,1008.35
2018-03-27T05:47:57.387Z,1008.36
2018-03-27T05:48:57.334Z,1008.39
2018-03-27T05:49:57.280Z,1008.35
2018-03-27T05:50:57.284Z,1008.36
2018-03-27T05:51:57.489Z,1008.43
2018-03-27T05:52:57.136Z,1008.41
2018-03-27T05:53:57.095Z,1008.42
2018-03-27T05:54:57.051Z,1008.44
2018-03-27T05:55:57.067Z,1008.46
2018-03-27T05:56:57.145Z,1008.43
2018-03-27T05:57:57.194Z,1008.48
2018-03-27T05:58:56.846Z,1008.43
2018-03-27T05:59:56.806Z,1008.48
2018-03-27T06:00:56.801Z,1008.48
2018-03-27T06:01:56.751Z,1008.51
2018-03-27T06:02:56.656Z,1008.50
2018-03-27T06:03:56.913Z,1008.51
2018-03-27T06:04:56.557Z,1008.44
2018-03-27T06:05:56.558Z,1008.47
2018-03-27T06:06:56.464Z,1008.40
2018-03-27T06:07:56.412Z,1008.41
2018-03-27T06:08:56.364Z,1008.40
2018-03-27T06:09:56.316Z,1008.43
2018-03-27T06:10:56.617Z,1008.42
2018-03-27T06:11:56.269Z,1008.43
2018-03-27T06:12:56.174Z,1008.42
2018-03-27T06:13:56.325Z,1008.42
2018-03-27T06:14:56.124Z,1008.35
2018-03-27T06:15:56.091Z,1008.41
2018-03-27T06:16:55.978Z,1008.39
2018-03-27T06:17:56.231Z,1008.36
2018-03-27T06:18:55.984Z,1008.39
2018-03-27T06:19:55.842Z,1008.42
2018-03-27T06:20:55.786Z,1008.40
2018-03-27T06:21:55.938Z,1008.39
2018-03-27T06:22:55.694Z,1008.41
2018-03-27T06:23:55.697Z,1008.41
2018-03-27T06:24:55.944Z,1008.42
2018-03-27T06:26:55.552Z,1008.37
2018-03-27T06:27:55.658Z,1008.40
2018-03-27T06:28:55.453Z,1008.38
2018-03-27T06:29:55.656Z,1008.42
2018-03-27T06:30:55.463Z,1008.40
2018-03-27T06:31:55.559Z,1008.39
2018-03-27T06:32:55.219Z,1008.38
2018-03-27T06:33:55.230Z,1008.36
2018-03-27T06:34:55.182Z,1008.34
2018-03-27T06:35:55.128Z,1008.34
2018-03-27T06:36:55.024Z,1008.39
2018-03-27T06:37:55.030Z,1008.34
2018-03-27T06:38:55.226Z,1008.42
2018-03-27T06:39:54.935Z,1008.36
2018-03-27T06:40:54.880Z,1008.38
2018-03-27T06:41:54.792Z,1008.36
2018-03-27T06:42:54.885Z,1008.41
2018-03-27T06:43:54.738Z,1008.44
2018-03-27T06:44:54.640Z,1008.38
2018-03-27T06:45:54.992Z,1008.42
2018-03-27T06:46:54.555Z,1008.43
2018-03-27T06:47:54.546Z,1008.40
2018-03-27T06:48:54.499Z,1008.43
2018-03-27T06:49:54.554Z,1008.42
2018-03-27T06:50:54.405Z,1008.42
2018-03-27T06:51:54.759Z,1008.40
2018-03-27T06:52:54.384Z,1008.37
2018-03-27T06:53:54.351Z,1008.42
2018-03-27T06:54:54.373Z,1008.38
2018-03-27T06:55:54.270Z,1008.38
2018-03-27T06:56:54.460Z,1008.40
2018-03-27T06:57:54.583Z,1008.41
2018-03-27T06:58:54.131Z,1008.42
2018-03-27T06:59:53.930Z,1008.39
2018-03-27T07:00:53.979Z,1008.42
2018-03-27T07:01:53.858Z,1008.40
2018-03-27T07:02:53.847Z,1008.32
2018-03-27T07:03:54.358Z,1008.40
2018-03-27T07:04:53.851Z,1008.33
2018-03-27T07:05:53.721Z,1008.31
2018-03-27T07:06:53.632Z,1008.32
2018-03-27T07:07:53.597Z,1008.33
2018-03-27T07:08:53.653Z,1008.35
2018-03-27T07:09:53.774Z,1008.34
2018-03-27T07:10:53.467Z,1008.35
2018-03-27T07:11:53.362Z,1008.34
2018-03-27T07:12:53.562Z,1008.32
2018-03-27T07:13:53.354Z,1008.31
2018-03-27T07:14:53.233Z,1008.29
2018-03-27T07:15:53.709Z,1008.33
2018-03-27T07:16:53.165Z,1008.33
2018-03-27T07:17:53.129Z,1008.32
2018-03-27T07:18:53.183Z,1008.29
2018-03-27T07:19:52.992Z,1008.40
2018-03-27T07:20:53.092Z,1008.39
2018-03-27T07:21:52.901Z,1008.42
2018-03-27T07:22:53.355Z,1008.43
2018-03-27T07:23:52.850Z,1008.40
2018-03-27T07:24:52.753Z,1008.38
2018-03-27T07:25:52.760Z,1008.43
2018-03-27T07:26:52.965Z,1008.45
2018-03-27T07:27:52.621Z,1008.40
2018-03-27T07:28:52.633Z,1008.40
2018-03-27T07:29:52.832Z,1008.43
2018-03-27T07:30:52.640Z,1008.41
2018-03-27T07:31:52.646Z,1008.40
2018-03-27T07:32:52.401Z,1008.43
2018-03-27T07:33:52.411Z,1008.45
2018-03-27T07:34:52.313Z,1008.44
2018-03-27T07:35:52.421Z,1008.42
2018-03-27T07:36:52.578Z,1008.40
2018-03-27T07:37:52.185Z,1008.43
2018-03-27T07:38:52.197Z,1008.36
2018-03-27T07:39:52.105Z,1008.39
2018-03-27T07:40:52.114Z,1008.43
2018-03-27T07:41:52.070Z,1008.38
2018-03-27T07:42:52.029Z,1008.39
2018-03-27T07:43:52.337Z,1008.35
2018-03-27T07:44:53.563Z,1008.41
2018-03-27T07:45:52.112Z,1008.41
2018-03-27T07:46:52.021Z,1008.46
2018-03-27T07:47:51.774Z,1008.44
2018-03-27T07:48:51.783Z,1008.44
2018-03-27T07:49:51.894Z,1008.43
2018-03-27T07:50:52.010Z,1008.44
2018-03-27T07:51:51.673Z,1008.38
2018-03-27T07:52:51.570Z,1008.36
2018-03-27T07:53:51.582Z,1008.35
2018-03-27T07:54:51.649Z,1008.40
2018-03-27T07:55:51.502Z,1008.35
2018-03-27T07:56:51.964Z,1008.33
2018-03-27T07:57:51.371Z,1008.33
2018-03-27T07:58:51.385Z,1008.29
2018-03-27T07:59:51.344Z,1008.28
2018-03-27T08:00:51.559Z,1008.27
2018-03-27T08:01:51.264Z,1008.30
2018-03-27T08:02:51.476Z,1008.28
2018-03-27T08:03:51.291Z,1008.30
2018-03-27T08:04:51.409Z,1008.30
2018-03-27T08:05:51.062Z,1008.33
2018-03-27T08:06:51.080Z,1008.32
2018-03-27T08:07:51.000Z,1008.33
2018-03-27T08:08:51.295Z,1008.34
2018-03-27T08:09:51.108Z,1008.35
2018-03-27T08:10:50.868Z,1008.33
2018-03-27T08:11:51.031Z,1008.30
2018-03-27T08:12:50.791Z,1008.28
2018-03-27T08:13:50.953Z,1008.27
2018-03-27T08:14:51.073Z,1008.26
2018-03-27T08:15:50.843Z,1008.23
2018-03-27T08:16:50.696Z,1008.25
2018-03-27T08:17:50.603Z,1008.23
2018-03-27T08:18:50.770Z,1008.25
2018-03-27T08:19:50.683Z,1008.26
2018-03-27T08:20:50.796Z,1008.26
2018-03-27T08:21:50.508Z,1008.19
2018-03-27T08:22:50.472Z,1008.17
2018-03-27T08:23:50.635Z,1008.17
2018-03-27T08:24:50.398Z,1008.17
2018-03-27T08:25:50.313Z,1008.19
2018-03-27T08:26:50.633Z,1008.14
2018-03-27T08:27:50.297Z,1008.11
2018-03-27T08:28:50.403Z,1008.09
2018-03-27T08:29:50.469Z,1008.10
2018-03-27T08:30:50.130Z,1008.10
2018-03-27T08:31:50.144Z,1008.05
2018-03-27T08:32:50.108Z,1008.06
2018-03-27T08:33:50.421Z,1008.03
2018-03-27T08:34:50.038Z,1007.99
2018-03-27T08:35:49.965Z,1008.00
2018-03-27T08:36:50.062Z,1008.01
2018-03-27T08:37:49.935Z,1007.96
2018-03-27T08:38:49.898Z,1007.96
2018-03-27T08:39:49.856Z,1007.95
2018-03-27T08:40:50.073Z,1007.95
2018-03-27T08:41:49.886Z,1007.94
2018-03-27T08:42:49.850Z,1007.97
2018-03-27T08:43:49.868Z,1007.98
2018-03-27T08:44:49.784Z,1007.97
2018-03-27T08:45:49.593Z,1007.96
2018-03-27T08:46:49.609Z,1007.94
2018-03-27T08:47:49.824Z,1007.93
2018-03-27T08:48:49.537Z,1007.87
2018-03-27T08:49:49.504Z,1007.89
2018-03-27T08:50:49.422Z,1007.87
2018-03-27T08:51:49.436Z,1007.90
2018-03-27T08:52:49.555Z,1007.84
2018-03-27T08:53:49.369Z,1007.84
2018-03-27T08:54:49.633Z,1007.84
2018-03-27T08:55:49.246Z,1007.79
2018-03-27T08:56:49.264Z,1007.82
2018-03-27T08:57:49.227Z,1007.79
2018-03-27T08:58:49.351Z,1007.80
2018-03-27T08:59:49.266Z,1007.78
2018-03-27T09:00:49.185Z,1007.79
2018-03-27T09:01:49.492Z,1007.75
2018-03-27T09:02:49.056Z,1007.83
2018-03-27T09:03:48.972Z,1007.73
2018-03-27T09:04:49.094Z,1007.79
2018-03-27T09:05:48.905Z,1007.82
2018-03-27T09:06:48.922Z,1007.81
2018-03-27T09:07:48.989Z,1007.77
2018-03-27T09:08:49.104Z,1007.76
2018-03-27T09:09:48.870Z,1007.75
2018-03-27T09:10:48.737Z,1007.73
2018-03-27T09:11:48.751Z,1007.75
2018-03-27T09:12:48.867Z,1007.68
2018-03-27T09:13:48.632Z,1007.68
2018-03-27T09:14:49.000Z,1007.65
2018-03-27T09:15:48.568Z,1007.65
2018-03-27T09:17:48.728Z,1007.61
2018-03-27T09:18:48.522Z,1007.59
2018-03-27T09:19:48.587Z,1007.55
2018-03-27T09:20:48.804Z,1007.56
2018-03-27T09:21:48.421Z,1007.58
2018-03-27T09:22:48.546Z,1007.58
2018-03-27T09:23:48.309Z,1007.56
2018-03-27T09:24:48.420Z,1007.51
2018-03-27T09:25:48.390Z,1007.53
2018-03-27T09:26:48.753Z,1007.52
2018-03-27T09:27:48.220Z,1007.48
2018-03-27T09:28:48.156Z,1007.51
2018-03-27T09:29:48.252Z,1007.54
2018-03-27T09:30:48.117Z,1007.57
2018-03-27T09:31:48.086Z,1007.63
2018-03-27T09:32:48.351Z,1007.55
2018-03-27T09:33:47.974Z,1007.58
2018-03-27T09:34:48.084Z,1007.56
2018-03-27T09:35:47.954Z,1007.52
2018-03-27T09:36:48.074Z,1007.55
2018-03-27T09:37:48.036Z,1007.50
2018-03-27T09:38:48.100Z,1007.50
2018-03-27T09:39:48.071Z,1007.51
2018-03-27T09:40:47.886Z,1007.48
2018-03-27T09:41:47.757Z,1007.44
2018-03-27T09:42:47.869Z,1007.46
2018-03-27T09:43:47.640Z,1007.49
2018-03-27T09:44:48.002Z,1007.50
2018-03-27T09:45:47.620Z,1007.50
2018-03-27T09:46:47.689Z,1007.47
2018-03-27T09:47:47.559Z,1007.54
2018-03-27T09:48:47.477Z,1007.44
2018-03-27T09:49:47.497Z,1007.49
2018-03-27T09:50:47.509Z,1007.48
2018-03-27T09:51:47.727Z,1007.26
2018-03-27T09:52:47.493Z,1007.23
2018-03-27T09:53:47.312Z,1007.20
2018-03-27T09:54:47.431Z,1007.21
2018-03-27T09:55:47.456Z,1007.22
2018-03-27T09:56:47.412Z,1007.40
2018-03-27T09:57:47.238Z,1007.14
2018-03-27T09:58:47.453Z,1007.02
2018-03-27T09:59:47.312Z,1007.10
2018-03-27T10:00:47.128Z,1007.15
2018-03-27T10:01:47.042Z,1007.06
2018-03-27T10:02:47.059Z,1007.10
2018-03-27T10:03:46.974Z,1007.07
2018-03-27T10:04:46.989Z,1007.12
2018-03-27T10:05:47.252Z,1007.07
2018-03-27T10:06:46.921Z,1007.01
2018-03-27T10:07:46.885Z,1006.94
2018-03-27T10:08:46.797Z,1006.91
2018-03-27T10:09:46.812Z,1007.12
2018-03-27T10:10:46.875Z,1006.89
2018-03-27T10:11:46.690Z,1006.94
2018-03-27T10:12:47.052Z,1006.88
2018-03-27T10:13:46.617Z,1006.89
2018-03-27T10:14:46.636Z,1006.87
2018-03-27T10:15:46.762Z,1006.84
2018-03-27T10:17:46.518Z,1007.00
2018-03-27T10:18:46.632Z,1006.84
2018-03-27T10:19:46.696Z,1006.85
2018-03-27T10:20:46.607Z,1006.78
2018-03-27T10:21:46.321Z,1006.81
2018-03-27T10:22:46.333Z,1006.78
2018-03-27T10:23:46.313Z,1006.80
2018-03-27T10:24:46.258Z,1006.81
2018-03-27T10:25:46.423Z,1006.79
2018-03-27T10:26:46.433Z,1006.83
2018-03-27T10:27:46.248Z,1006.86
2018-03-27T10:28:46.273Z,1006.69
2018-03-27T10:29:46.166Z,1006.86
2018-03-27T10:30:46.031Z,1006.78
2018-03-27T10:31:45.941Z,1006.79
2018-03-27T10:32:46.302Z,1006.85
2018-03-27T10:33:46.063Z,1006.80
2018-03-27T10:34:45.875Z,1006.87
2018-03-27T10:35:45.838Z,1006.84
2018-03-27T10:36:45.751Z,1006.74
2018-03-27T10:37:45.782Z,1006.77
2018-03-27T10:38:46.182Z,1006.66
2018-03-27T10:39:45.644Z,1006.81
2018-03-27T10:40:45.855Z,1006.81
2018-03-27T10:41:45.575Z,1006.83
2018-03-27T10:42:45.739Z,1006.79
2018-03-27T10:43:45.550Z,1006.80
2018-03-27T10:44:45.967Z,1006.80
2018-03-27T10:45:45.580Z,1006.66
2018-03-27T10:46:45.413Z,1006.60
2018-03-27T10:47:45.413Z,1006.63
2018-03-27T10:48:45.482Z,1006.72
2018-03-27T10:49:45.343Z,1006.62
2018-03-27T10:50:45.712Z,1006.70
2018-03-27T10:51:45.232Z,1006.70
2018-03-27T10:52:45.245Z,1006.61
2018-03-27T10:53:45.313Z,1006.50
2018-03-27T10:54:45.128Z,1006.59
2018-03-27T10:55:45.144Z,1006.49
2018-03-27T10:56:45.371Z,1006.55
2018-03-27T10:57:45.228Z,1006.55
2018-03-27T10:58:45.069Z,1006.52
2018-03-27T10:59:44.960Z,1006.52
2018-03-27T11:00:44.980Z,1006.55
2018-03-27T11:01:44.943Z,1006.52
2018-03-27T11:02:45.211Z,1006.50
2018-03-27T11:03:45.044Z,1006.31
2018-03-27T11:04:44.790Z,1006.31
2018-03-27T11:05:44.808Z,1006.45
2018-03-27T11:06:44.800Z,1006.40
2018-03-27T11:07:44.744Z,1006.38
2018-03-27T11:08:44.708Z,1006.34
2018-03-27T11:09:44.928Z,1006.40
2018-03-27T11:10:44.648Z,1006.32
2018-03-27T11:11:44.760Z,1006.37
2018-03-27T11:12:44.581Z,1006.24
2018-03-27T11:13:44.705Z,1006.35
2018-03-27T11:14:44.468Z,1006.28
2018-03-27T11:15:44.487Z,1006.28
2018-03-27T11:16:44.959Z,1006.23
2018-03-27T11:17:44.423Z,1006.10
2018-03-27T11:18:44.392Z,1006.20
2018-03-27T11:19:44.316Z,1006.07
2018-03-27T11:20:44.379Z,1006.23
2018-03-27T11:21:44.457Z,1006.24
2018-03-27T11:22:44.363Z,1006.14
2018-03-27T11:23:44.531Z,1006.08
2018-03-27T11:24:44.162Z,1006.02
2018-03-27T11:25:44.169Z,1005.90
2018-03-27T11:26:44.137Z,1006.06
2018-03-27T11:27:44.252Z,1006.07
2018-03-27T11:28:44.218Z,1006.03
2018-03-27T11:29:43.996Z,1006.00
2018-03-27T11:30:44.351Z,1005.96
2018-03-27T11:31:44.073Z,1005.95
2018-03-27T11:32:44.033Z,1005.92
2018-03-27T11:33:43.999Z,1005.94
2018-03-27T11:34:43.831Z,1005.85
2018-03-27T11:35:43.988Z,1005.87
2018-03-27T11:36:43.943Z,1005.88
2018-03-27T11:37:44.109Z,1005.85
2018-03-27T11:38:43.871Z,1005.84
2018-03-27T11:39:43.635Z,1005.79
2018-03-27T11:40:43.756Z,1005.82
2018-03-27T11:41:43.608Z,1005.88
2018-03-27T11:42:43.728Z,1005.81
2018-03-27T11:43:43.534Z,1005.82
2018-03-27T11:44:43.751Z,1005.83
2018-03-27T11:45:43.466Z,1005.84
2018-03-27T11:46:43.428Z,1005.87
2018-03-27T11:47:43.392Z,1005.78
2018-03-27T11:48:43.363Z,1005.87
2018-03-27T11:49:43.280Z,1005.78
2018-03-27T11:50:43.590Z,1005.87
2018-03-27T11:51:43.365Z,1005.86
2018-03-27T11:52:43.172Z,1005.68
2018-03-27T11:53:43.193Z,1005.68
2018-03-27T11:54:43.120Z,1005.55
2018-03-27T11:55:43.141Z,1005.51
2018-03-27T11:56:43.395Z,1005.54
2018-03-27T11:57:43.162Z,1005.59
2018-03-27T11:58:43.130Z,1005.49
2018-03-27T11:59:42.949Z,1005.52
2018-03-27T12:00:42.963Z,1005.49
2018-03-27T12:01:42.932Z,1005.50
2018-03-27T12:02:43.150Z,1005.46
2018-03-27T12:03:42.867Z,1005.45
2018-03-27T12:04:42.793Z,1005.47
2018-03-27T12:05:42.803Z,1005.40
2018-03-27T12:06:42.872Z,1005.51
2018-03-27T12:07:42.693Z,1005.45